Time;durP1;ratioP1;P1;durP2;ratioP2;P2;SDS_P1;SDS_P2;PMS_P1;PMS_P2;Temp;Humidity;BMP_temperature;BMP_pressure;BME280_temperature;BME280_humidity;BME280_pressure;Samples;Min_cycle;Max_cycle;Signal;HPM_P1;HPM_P2
2022/05/15 00:01:15;;;;;;;;;6.33;6.00;;;;;16.11;55.80;102136.31;5010755;28;9357;-66
2022/05/15 00:03:42;;;;;;;;;8.00;5.33;;;;;16.15;55.94;102134.88;5010791;28;9335;-65
2022/05/15 00:06:08;;;;;;;;;6.00;6.00;;;;;16.20;55.93;102141.38;5032729;28;9377;-66
2022/05/15 00:08:38;;;;;;;;;4.00;3.00;;;;;16.20;55.95;102127.78;5038853;28;9296;-65
2022/05/15 00:11:08;;;;;;;;;3.00;2.67;;;;;16.19;56.37;102138.88;5032385;28;9249;-66
2022/05/15 00:13:35;;;;;;;;;6.00;5.00;;;;;16.14;56.44;102130.50;5017510;28;9234;-65
2022/05/15 00:16:02;;;;;;;;;7.00;5.00;;;;;16.16;56.51;102128.41;5032914;28;9241;-65
2022/05/15 00:18:29;;;;;;;;;7.00;5.33;;;;;16.19;56.25;102123.41;5034011;28;9147;-65
2022/05/15 00:20:56;;;;;;;;;4.00;4.00;;;;;16.21;56.35;102125.94;5032609;28;9282;-66
2022/05/15 00:23:24;;;;;;;;;5.33;5.00;;;;;16.18;56.57;102127.16;5029886;28;9233;-66
2022/05/15 00:25:51;;;;;;;;;4.33;4.33;;;;;16.23;56.69;102112.97;5038407;28;9211;-65
2022/05/15 00:28:17;;;;;;;;;4.00;4.00;;;;;16.29;56.21;102112.19;5053938;28;9154;-65
2022/05/15 00:30:45;;;;;;;;;5.33;5.33;;;;;16.32;56.25;102118.03;5035224;28;9331;-66
2022/05/15 00:33:11;;;;;;;;;5.00;4.33;;;;;16.23;56.12;102116.53;5037338;28;9462;-65
2022/05/15 00:35:38;;;;;;;;;2.67;2.67;;;;;16.16;56.62;102110.22;5034616;28;9339;-65
2022/05/15 00:38:06;;;;;;;;;6.00;3.00;;;;;16.20;56.54;102111.50;5043412;28;9307;-66
2022/05/15 00:40:34;;;;;;;;;3.67;3.00;;;;;16.23;56.33;102110.25;5038912;28;9239;-65
2022/05/15 00:43:01;;;;;;;;;6.67;6.33;;;;;16.18;56.51;102110.03;5052820;28;9262;-65
2022/05/15 00:45:28;;;;;;;;;7.67;6.67;;;;;16.00;56.49;102100.53;5024479;28;9261;-65
2022/05/15 00:47:54;;;;;;;;;7.67;7.00;;;;;15.97;57.15;102103.63;5019883;28;9280;-65
2022/05/15 00:50:29;;;;;;;;;6.00;6.00;;;;;16.00;57.08;102105.09;5031765;28;9407;-65
2022/05/15 00:53:00;;;;;;;;;3.00;3.00;;;;;15.97;57.06;102105.53;5029171;28;9309;-66
2022/05/15 00:55:31;;;;;;;;;4.33;4.33;;;;;15.97;56.87;102103.63;5038789;28;9280;-65
2022/05/15 00:58:00;;;;;;;;;5.67;4.33;;;;;16.01;57.04;102107.63;5052228;28;9296;-65
2022/05/15 01:00:28;;;;;;;;;5.67;3.67;;;;;16.06;56.96;102112.47;5023411;28;10045;-65
2022/05/15 01:03:06;;;;;;;;;6.33;6.33;;;;;16.07;57.00;102112.25;5012431;28;9467;-65
2022/05/15 01:05:36;;;;;;;;;5.33;3.67;;;;;16.08;56.74;102104.94;5013392;28;9394;-65
2022/05/15 01:08:04;;;;;;;;;6.33;4.33;;;;;16.06;56.68;102104.31;5035716;28;9401;-64
2022/05/15 01:10:32;;;;;;;;;5.67;5.00;;;;;15.95;57.41;102104.88;5028643;28;9181;-65
2022/05/15 01:12:59;;;;;;;;;4.67;3.00;;;;;15.93;57.47;102115.09;5040328;28;9221;-65
2022/05/15 01:15:27;;;;;;;;;6.33;3.67;;;;;15.97;57.19;102110.97;5031924;28;9316;-65
2022/05/15 01:17:57;;;;;;;;;5.33;5.00;;;;;15.94;57.26;102112.19;5031730;28;9316;-65
2022/05/15 01:20:29;;;;;;;;;6.00;5.00;;;;;15.93;57.11;102106.97;5027808;28;9344;-65
2022/05/15 01:22:55;;;;;;;;;7.00;5.00;;;;;15.91;56.85;102107.13;5039475;28;9444;-65
2022/05/15 01:25:26;;;;;;;;;6.25;5.50;;;;;15.85;56.81;102109.81;5026555;28;9508;-65
2022/05/15 01:28:02;;;;;;;;;4.33;4.00;;;;;15.83;56.76;102101.84;5011610;28;10218;-65
2022/05/15 01:30:30;;;;;;;;;5.00;3.67;;;;;15.78;56.58;102105.19;5031131;28;9300;-65
2022/05/15 01:32:57;;;;;;;;;4.67;2.67;;;;;15.82;56.54;102105.63;5040720;28;9195;-65
2022/05/15 01:35:26;;;;;;;;;7.00;5.75;;;;;15.85;56.78;102109.81;5020178;28;9326;-65
2022/05/15 01:38:00;;;;;;;;;3.00;3.00;;;;;15.78;56.19;102099.75;5039810;28;9356;-65
2022/05/15 01:40:27;;;;;;;;;4.33;4.33;;;;;15.74;56.63;102100.34;5023022;28;9316;-66
2022/05/15 01:42:53;;;;;;;;;5.00;3.00;;;;;15.75;56.49;102102.00;5039106;28;9379;-64
2022/05/15 01:45:20;;;;;;;;;5.67;4.67;;;;;15.78;56.34;102096.19;5019695;28;9307;-64
2022/05/15 01:47:50;;;;;;;;;2.00;2.00;;;;;15.78;56.23;102096.19;5012829;28;10085;-65
2022/05/15 01:50:17;;;;;;;;;4.67;4.33;;;;;15.78;56.31;102090.75;5028037;28;9432;-65
2022/05/15 01:52:45;;;;;;;;;5.33;3.33;;;;;15.79;56.01;102097.88;5047659;28;9235;-65
2022/05/15 01:55:13;;;;;;;;;3.00;3.00;;;;;15.74;56.13;102101.19;5031790;28;9483;-65
2022/05/15 01:57:42;;;;;;;;;3.00;3.00;;;;;15.73;55.79;102101.38;5031112;28;9362;-66
2022/05/15 02:00:13;;;;;;;;;6.00;6.00;;;;;15.53;55.99;102098.47;5031171;28;9300;-64
2022/05/15 02:02:41;;;;;;;;;9.00;5.00;;;;;15.50;56.22;102105.13;5031127;28;9372;-65
2022/05/15 02:05:09;;;;;;;;;3.67;3.67;;;;;15.52;55.70;102102.25;5029057;28;9455;-65
2022/05/15 02:07:36;;;;;;;;;6.00;4.33;;;;;15.47;55.01;102099.25;5037930;28;9313;-65
2022/05/15 02:10:04;;;;;;;;;5.67;5.33;;;;;15.33;55.88;102092.88;5022825;28;9396;-64
2022/05/15 02:12:30;;;;;;;;;6.67;3.00;;;;;15.31;55.78;102095.81;5032552;28;9402;-65
2022/05/15 02:14:57;;;;;;;;;2.00;2.00;;;;;15.37;56.05;102088.75;5035124;28;9290;-65
2022/05/15 02:17:24;;;;;;;;;6.00;5.00;;;;;15.35;55.59;102090.78;5050621;28;9287;-66
2022/05/15 02:19:50;;;;;;;;;4.50;3.00;;;;;15.33;55.65;102082.03;5036768;28;9380;-65
2022/05/15 02:22:17;;;;;;;;;3.00;3.00;;;;;15.35;55.89;102085.38;5040719;28;9519;-65
2022/05/15 02:24:44;;;;;;;;;6.00;3.00;;;;;15.43;55.61;102087.09;5030204;28;10124;-65
2022/05/15 02:27:12;;;;;;;;;4.00;3.67;;;;;15.49;55.76;102091.78;5026784;28;9393;-66
2022/05/15 02:29:39;;;;;;;;;4.50;4.50;;;;;15.48;55.35;102084.66;5021416;28;9311;-66
2022/05/15 02:32:06;;;;;;;;;5.67;5.00;;;;;15.34;55.54;102084.53;5039215;28;9589;-66
2022/05/15 02:34:32;;;;;;;;;7.33;5.00;;;;;15.21;55.69;102080.88;5009956;28;9402;-65
2022/05/15 02:37:01;;;;;;;;;5.33;2.33;;;;;15.21;55.85;102083.59;5026071;28;9391;-65
2022/05/15 02:39:27;;;;;;;;;5.25;5.25;;;;;15.22;55.66;102086.09;5043310;28;9230;-66
2022/05/15 02:41:54;;;;;;;;;4.00;2.25;;;;;15.23;55.83;102076.94;5031895;28;9472;-65
2022/05/15 02:44:20;;;;;;;;;3.67;3.00;;;;;15.18;55.37;102084.81;5031756;28;9431;-65
2022/05/15 02:46:49;;;;;;;;;4.50;3.25;;;;;15.16;55.45;102086.06;5010486;28;9368;-65
2022/05/15 02:52:02;;;;;;;;;7.00;5.25;;;;;15.23;55.10;102086.94;5039124;28;9408;-65
2022/05/15 02:54:28;;;;;;;;;3.33;3.00;;;;;15.11;55.64;102083.06;5029999;28;9525;-65
2022/05/15 02:56:56;;;;;;;;;2.50;2.00;;;;;15.13;55.84;102076.41;5029710;28;9269;-64
2022/05/15 02:59:24;;;;;;;;;3.00;3.00;;;;;15.18;55.70;102092.09;5013720;28;9475;-65
2022/05/15 03:01:51;;;;;;;;;5.25;3.00;;;;;15.21;55.54;102083.59;5029259;28;9520;-64
2022/05/15 03:04:17;;;;;;;;;3.50;3.50;;;;;15.18;55.37;102079.38;5029237;28;9451;-65
2022/05/15 03:06:44;;;;;;;;;3.00;2.33;;;;;15.22;55.25;102085.25;5034695;28;9437;-65
2022/05/15 03:09:11;;;;;;;;;3.00;3.00;;;;;15.23;55.48;102081.50;5015010;28;9373;-65
2022/05/15 03:11:38;;;;;;;;;2.00;2.00;;;;;15.25;55.32;102083.00;5035171;28;10086;-65
2022/05/15 03:14:05;;;;;;;;;2.00;2.00;;;;;15.24;55.34;102083.22;5037689;28;9296;-69
2022/05/15 03:16:31;;;;;;;;;5.50;3.00;;;;;15.22;55.57;102075.25;5012826;28;10068;-65
2022/05/15 03:18:58;;;;;;;;;2.75;2.00;;;;;15.26;55.38;102081.97;5036470;28;9573;-65
2022/05/15 03:21:30;;;;;;;;;2.75;2.75;;;;;15.26;55.59;102081.13;5032324;28;9448;-65
2022/05/15 03:24:02;;;;;;;;;4.33;2.00;;;;;15.22;55.49;102072.53;5042885;28;9433;-65
2022/05/15 03:26:31;;;;;;;;;5.50;2.50;;;;;15.22;55.33;102075.25;5033752;28;9539;-65
2022/05/15 03:28:58;;;;;;;;;3.00;2.00;;;;;15.22;55.33;102067.09;5028606;28;9440;-66
2022/05/15 03:31:26;;;;;;;;;2.00;2.00;;;;;15.21;55.63;102067.31;5044821;28;9452;-65
2022/05/15 03:33:53;;;;;;;;;3.33;1.67;;;;;15.15;55.36;102063.53;5029299;28;9304;-66
2022/05/15 03:36:20;;;;;;;;;4.00;3.67;;;;;15.07;56.06;102055.53;5029196;28;9371;-66
2022/05/15 03:38:47;;;;;;;;;3.75;3.75;;;;;15.03;56.41;102051.50;4993846;28;9362;-66
2022/05/15 03:41:14;;;;;;;;;3.50;2.75;;;;;15.05;56.33;102046.72;5027592;28;9398;-63
2022/05/15 03:43:41;;;;;;;;;10.50;5.50;;;;;15.04;56.27;102045.88;5029557;28;9439;-64
2022/05/15 03:46:07;;;;;;;;;3.67;3.67;;;;;15.06;56.28;102048.38;5028366;28;9451;-65
2022/05/15 03:48:35;;;;;;;;;2.00;1.33;;;;;15.07;56.58;102045.50;5035599;28;9384;-65
2022/05/15 03:51:03;;;;;;;;;2.33;2.00;;;;;15.06;56.23;102053.81;5014527;28;10229;-66
2022/05/15 03:53:30;;;;;;;;;3.50;3.00;;;;;15.05;56.17;102050.28;5017951;28;9472;-66
2022/05/15 03:55:58;;;;;;;;;3.50;3.50;;;;;15.01;56.33;102046.25;5035597;28;9361;-65
2022/05/15 03:58:26;;;;;;;;;1.33;1.33;;;;;14.98;56.50;102053.94;5048967;28;9376;-65
2022/05/15 04:00:53;;;;;;;;;5.33;3.00;;;;;14.96;56.48;102045.19;5012979;28;9400;-65
2022/05/15 04:03:21;;;;;;;;;2.00;2.00;;;;;14.96;56.27;102037.88;5019949;28;9368;-65
2022/05/15 04:05:48;;;;;;;;;3.00;3.00;;;;;14.98;56.41;102043.09;5039696;28;9381;-65
2022/05/15 04:08:15;;;;;;;;;3.67;1.00;;;;;15.00;56.35;102044.59;5024816;28;9609;-65
2022/05/15 04:10:42;;;;;;;;;3.75;3.00;;;;;15.01;56.47;102040.84;5010535;28;9391;-65
2022/05/15 04:13:09;;;;;;;;;5.00;2.50;;;;;15.00;56.30;102041.06;5010382;28;9455;-65
2022/05/15 04:15:35;;;;;;;;;2.67;2.67;;;;;14.96;56.58;102037.88;5058957;23;9481;-65
2022/05/15 04:18:02;;;;;;;;;3.50;2.25;;;;;14.91;56.76;102036.78;5041451;28;9304;-66
2022/05/15 04:20:29;;;;;;;;;1.00;1.00;;;;;14.84;56.99;102037.56;5045536;28;9460;-65
2022/05/15 04:22:56;;;;;;;;;3.00;2.00;;;;;14.86;56.88;102045.47;5044306;28;9389;-66
2022/05/15 04:25:24;;;;;;;;;2.75;2.25;;;;;14.88;56.97;102046.16;5044999;28;9483;-66
2022/05/15 04:27:51;;;;;;;;;2.00;2.00;;;;;14.95;56.74;102047.06;5048590;28;9505;-64
2022/05/15 04:30:21;;;;;;;;;4.50;2.25;;;;;14.97;56.73;102047.69;5047143;28;9587;-65
2022/05/15 04:32:47;;;;;;;;;6.25;2.50;;;;;15.00;56.80;102052.72;5048776;28;9386;-66
2022/05/15 04:35:14;;;;;;;;;3.00;2.33;;;;;15.01;56.75;102048.97;5031791;28;9497;-66
2022/05/15 04:37:41;;;;;;;;;4.33;2.33;;;;;14.99;56.87;102053.78;5019667;28;9475;-65
2022/05/15 04:40:09;;;;;;;;;6.00;5.00;;;;;14.94;56.84;102052.66;5041269;28;9333;-66
2022/05/15 04:42:36;;;;;;;;;3.25;3.25;;;;;14.85;57.39;102049.25;5033785;28;9584;-66
2022/05/15 04:45:03;;;;;;;;;5.25;3.00;;;;;14.91;57.41;102055.75;5030965;28;9683;-66
2022/05/15 04:47:30;;;;;;;;;6.00;6.00;;;;;14.88;57.48;102051.56;5030416;28;10312;-65
2022/05/15 04:49:56;;;;;;;;;4.00;2.33;;;;;14.90;57.29;102054.91;5036568;28;9458;-64
2022/05/15 04:52:23;;;;;;;;;2.00;2.00;;;;;14.92;57.39;102058.28;5030258;28;9475;-65
2022/05/15 04:54:49;;;;;;;;;3.00;3.00;;;;;14.90;57.16;102071.19;5038773;28;9499;-64
2022/05/15 04:57:16;;;;;;;;;4.33;4.33;;;;;14.94;57.33;102068.91;5025821;28;9463;-64
2022/05/15 04:59:42;;;;;;;;;2.67;2.67;;;;;14.96;57.45;102062.28;5022241;28;9450;-66
2022/05/15 05:02:09;;;;;;;;;3.00;3.00;;;;;14.99;57.57;102063.75;5032847;28;9385;-67
2022/05/15 05:04:35;;;;;;;;;3.00;2.33;;;;;15.05;57.66;102060.28;5027475;28;9471;-66
2022/05/15 05:07:02;;;;;;;;;4.33;2.00;;;;;15.08;57.69;102063.44;5033256;28;9447;-66
2022/05/15 05:09:28;;;;;;;;;4.00;4.00;;;;;15.14;57.52;102078.09;5034687;28;9305;-66
2022/05/15 05:11:55;;;;;;;;;5.25;4.25;;;;;15.12;57.45;102073.91;5033560;28;9452;-64
2022/05/15 05:14:22;;;;;;;;;7.00;5.00;;;;;15.09;58.13;102080.56;5034210;28;9510;-65
2022/05/15 05:16:48;;;;;;;;;7.75;5.50;;;;;15.08;58.05;102081.59;5033244;28;9450;-65
2022/05/15 05:19:15;;;;;;;;;2.67;2.00;;;;;15.09;57.96;102080.56;5030910;28;9654;-66
2022/05/15 05:21:41;;;;;;;;;6.00;5.00;;;;;15.06;58.25;102089.06;5033112;28;9390;-66
2022/05/15 05:24:08;;;;;;;;;7.00;4.00;;;;;15.05;58.35;102080.09;5034506;28;9531;-64
2022/05/15 05:26:34;;;;;;;;;7.25;5.75;;;;;15.01;58.42;102083.41;5032951;28;9550;-65
2022/05/15 05:29:01;;;;;;;;;4.75;4.75;;;;;15.01;58.27;102073.38;5049413;28;9712;-65
2022/05/15 05:31:27;;;;;;;;;6.00;3.00;;;;;15.09;58.38;102072.41;5032848;28;9380;-65
2022/05/15 05:33:55;;;;;;;;;7.75;6.50;;;;;15.12;58.25;102080.19;5033571;28;9551;-65
2022/05/15 05:36:21;;;;;;;;;3.50;1.75;;;;;15.16;58.26;102070.63;5032883;28;9472;-65
2022/05/15 05:38:48;;;;;;;;;6.75;5.25;;;;;15.24;57.85;102075.91;5033749;28;10243;-67
2022/05/15 05:41:15;;;;;;;;;5.50;5.25;;;;;15.23;57.44;102076.09;5032872;28;9444;-66
2022/05/15 05:43:41;;;;;;;;;7.33;5.33;;;;;15.20;57.73;102069.19;5033409;28;9545;-66
2022/05/15 05:46:08;;;;;;;;;9.75;7.50;;;;;15.27;57.67;102078.22;5041019;28;9320;-66
2022/05/15 05:48:34;;;;;;;;;7.75;7.00;;;;;15.30;57.55;102061.53;5023580;28;9686;-67
2022/05/15 05:51:01;;;;;;;;;7.33;4.67;;;;;15.41;57.40;102067.50;5050824;28;9381;-66
2022/05/15 05:53:27;;;;;;;;;3.50;3.50;;;;;15.50;57.60;102060.88;5052349;28;9328;-65
2022/05/15 05:55:54;;;;;;;;;5.00;3.67;;;;;15.61;57.72;102070.38;5043214;28;10044;-67
2022/05/15 05:58:20;;;;;;;;;5.00;4.67;;;;;15.74;57.41;102068.59;5032223;28;9322;-65
2022/05/15 06:00:47;;;;;;;;;6.67;4.33;;;;;15.90;57.09;102067.44;5025620;28;9313;-65
2022/05/15 06:05:58;;;;;;;;;5.00;5.00;;;;;15.88;56.79;102063.25;5031967;28;9310;-65
2022/05/15 06:08:28;;;;;;;;;7.00;7.00;;;;;15.94;56.74;102059.75;5023740;28;9372;-67
2022/05/15 06:10:54;;;;;;;;;5.00;5.00;;;;;16.03;56.00;102072.94;5049496;28;9419;-65
2022/05/15 06:13:21;;;;;;;;;10.67;6.00;;;;;15.96;56.20;102063.94;5039970;28;9396;-67
2022/05/15 06:15:48;;;;;;;;;7.33;7.00;;;;;15.97;56.35;102073.78;5023032;28;9204;-65
2022/05/15 06:18:14;;;;;;;;;10.00;7.00;;;;;15.95;56.34;102072.28;5012535;28;10042;-64
2022/05/15 06:20:41;;;;;;;;;7.33;4.67;;;;;16.01;56.47;102075.03;5030103;28;9211;-67
2022/05/15 06:23:07;;;;;;;;;5.00;5.00;;;;;16.02;56.06;102078.59;5032007;28;9270;-66
2022/05/15 06:25:34;;;;;;;;;4.67;4.67;;;;;16.04;55.97;102069.22;5044192;28;9079;-67
2022/05/15 06:28:02;;;;;;;;;6.00;3.00;;;;;16.13;56.14;102071.78;5022877;28;9383;-65
2022/05/15 06:30:28;;;;;;;;;6.67;6.00;;;;;16.14;56.10;102073.44;5046218;28;9251;-67
2022/05/15 06:32:55;;;;;;;;;9.67;7.67;;;;;16.00;55.81;102073.38;5051767;28;9070;-66
2022/05/15 06:35:22;;;;;;;;;6.33;6.00;;;;;15.86;56.97;102071.59;5038226;28;9287;-67
2022/05/15 06:37:48;;;;;;;;;10.33;5.67;;;;;15.83;56.92;102078.25;5031474;28;9846;-67
2022/05/15 06:40:15;;;;;;;;;6.00;6.00;;;;;15.80;57.19;102077.84;5037067;28;9396;-67
2022/05/15 06:42:43;;;;;;;;;10.00;7.00;;;;;15.86;56.67;102076.19;5023283;28;9074;-67
2022/05/15 06:45:11;;;;;;;;;7.67;6.33;;;;;15.86;57.17;102073.47;5031125;28;9299;-66
2022/05/15 06:47:38;;;;;;;;;6.33;6.00;;;;;15.87;57.20;102072.44;5029920;28;9387;-67
2022/05/15 06:50:07;;;;;;;;;8.00;6.67;;;;;15.91;57.08;102071.84;5021732;28;9328;-66
2022/05/15 06:52:34;;;;;;;;;7.33;6.67;;;;;15.92;56.55;102064.53;5011875;28;10101;-67
2022/05/15 06:55:00;;;;;;;;;11.00;7.00;;;;;15.92;56.67;102061.81;5023817;28;9377;-67
2022/05/15 06:57:29;;;;;;;;;6.00;6.00;;;;;15.94;56.81;102063.28;5035780;28;9957;-67
2022/05/15 07:00:05;;;;;;;;;11.33;7.67;;;;;16.02;56.82;102065.84;5039853;28;9233;-67
2022/05/15 07:02:32;;;;;;;;;11.67;7.33;;;;;16.06;56.60;102060.84;5038240;28;9147;-66
2022/05/15 07:04:58;;;;;;;;;8.00;7.00;;;;;16.04;55.66;102057.50;5032200;28;9373;-66
2022/05/15 07:07:25;;;;;;;;;9.00;6.67;;;;;15.97;56.15;102062.06;5030745;28;9329;-67
2022/05/15 07:09:52;;;;;;;;;7.00;6.00;;;;;15.96;56.35;102065.81;5037129;28;9374;-67
2022/05/15 07:12:18;;;;;;;;;11.00;7.00;;;;;15.98;55.98;102064.56;5023274;28;9385;-66
2022/05/15 07:14:45;;;;;;;;;7.00;7.00;;;;;16.03;56.12;102056.66;5038582;28;9405;-67
2022/05/15 07:17:12;;;;;;;;;6.67;5.67;;;;;16.15;56.12;102061.53;5026410;28;9262;-66
2022/05/15 07:19:40;;;;;;;;;5.00;5.00;;;;;16.22;55.98;102063.25;5030219;28;9073;-66
2022/05/15 07:22:08;;;;;;;;;7.67;6.33;;;;;16.24;55.70;102069.28;5027185;28;9320;-67
2022/05/15 07:24:38;;;;;;;;;12.00;9.33;;;;;16.28;55.59;102054.25;5029626;28;10013;-66
2022/05/15 07:27:06;;;;;;;;;10.33;8.00;;;;;16.35;55.55;102061.63;5022633;28;9398;-67
2022/05/15 07:29:36;;;;;;;;;7.33;4.00;;;;;16.37;55.67;102073.16;5039824;28;9377;-65
2022/05/15 07:32:04;;;;;;;;;10.00;9.00;;;;;16.39;55.21;102066.44;5022862;28;9308;-67
2022/05/15 07:34:31;;;;;;;;;9.00;8.00;;;;;16.36;54.90;102061.41;5035317;28;9510;-66
2022/05/15 07:36:57;;;;;;;;;7.67;7.00;;;;;16.46;55.64;102069.19;5050669;28;9370;-65
2022/05/15 07:39:24;;;;;;;;;9.33;7.00;;;;;16.49;55.17;102071.53;5028536;28;9385;-64
2022/05/15 07:41:51;;;;;;;;;12.33;9.67;;;;;16.49;54.96;102066.09;5031263;28;9382;-66
2022/05/15 07:44:18;;;;;;;;;11.33;9.00;;;;;16.49;54.86;102058.75;5034530;28;9390;-63
2022/05/15 07:46:44;;;;;;;;;9.00;9.00;;;;;16.47;55.26;102060.84;5032645;28;9303;-67
2022/05/15 07:49:12;;;;;;;;;8.00;7.33;;;;;16.51;54.91;102064.81;5031916;28;9373;-65
2022/05/15 07:51:43;;;;;;;;;7.00;7.00;;;;;16.61;55.28;102058.16;5030575;28;9348;-65
2022/05/15 07:54:18;;;;;;;;;9.67;8.33;;;;;16.77;55.34;102064.09;5025412;28;9255;-66
2022/05/15 07:56:45;;;;;;;;;9.67;7.33;;;;;16.85;54.95;102060.34;5036781;28;9267;-66
2022/05/15 07:59:12;;;;;;;;;7.00;7.00;;;;;16.87;55.23;102060.16;5033965;28;9365;-65
2022/05/15 08:01:40;;;;;;;;;11.00;10.33;;;;;16.89;54.87;102063.47;5050655;28;9286;-65
2022/05/15 08:04:07;;;;;;;;;12.33;10.00;;;;;16.90;54.92;102059.75;5033882;28;9232;-64
2022/05/15 08:09:19;;;;;;;;;7.00;7.00;;;;;16.98;54.82;102064.97;5029280;28;9068;-66
2022/05/15 08:11:45;;;;;;;;;11.00;7.00;;;;;17.00;54.88;102069.16;5021020;28;9173;-66
2022/05/15 08:14:12;;;;;;;;;8.33;6.67;;;;;17.10;54.66;102063.31;5032369;28;9308;-67
2022/05/15 08:16:39;;;;;;;;;5.67;5.33;;;;;17.16;54.69;102064.38;5050445;28;10084;-65
2022/05/15 08:24:39;;;;;;;;;11.67;9.33;;;;;17.33;53.20;102051.19;5030366;28;9305;-65
2022/05/15 08:27:06;;;;;;;;;12.33;8.33;;;;;17.28;53.69;102046.38;5017395;28;9309;-66
2022/05/15 08:29:33;;;;;;;;;7.33;7.00;;;;;17.32;53.98;102050.34;5024233;28;9288;-66
2022/05/15 08:32:00;;;;;;;;;11.00;11.00;;;;;17.36;53.90;102050.78;5050173;28;9145;-65
2022/05/15 08:34:27;;;;;;;;;9.67;9.00;;;;;17.43;53.22;102040.72;5048096;28;9222;-65
2022/05/15 08:36:54;;;;;;;;;6.00;5.00;;;;;17.50;53.59;102038.81;5044547;28;9132;-66
2022/05/15 08:39:20;;;;;;;;;8.00;7.67;;;;;17.62;53.07;102039.00;5030186;28;9205;-64
2022/05/15 08:42:14;;;;;;;;;10.00;6.00;;;;;17.69;52.79;102045.28;5033818;28;9152;-65
2022/05/15 08:44:44;;;;;;;;;8.33;8.33;;;;;17.69;52.67;102035.22;5008198;28;9155;-65
2022/05/15 08:47:14;;;;;;;;;7.00;6.33;;;;;17.74;52.49;102031.88;5027771;28;9288;-65
2022/05/15 08:49:44;;;;;;;;;9.00;7.00;;;;;17.82;52.21;102028.94;5031286;28;9777;-64
2022/05/15 08:52:41;;;;;;;;;7.67;6.00;;;;;17.95;52.35;102028.94;5021693;28;9070;-66
2022/05/15 08:55:14;;;;;;;;;8.33;7.00;;;;;18.10;51.57;102023.19;5018322;28;8997;-67
2022/05/15 08:57:44;;;;;;;;;9.67;9.67;;;;;18.11;51.65;102019.44;5024364;28;8971;-65
2022/05/15 09:00:14;;;;;;;;;8.67;8.33;;;;;18.17;52.66;102021.28;5031188;28;9320;-66
2022/05/15 09:02:43;;;;;;;;;12.33;9.33;;;;;18.26;52.32;102009.09;5031622;28;9744;-66
2022/05/15 09:05:12;;;;;;;;;5.00;5.00;;;;;18.34;52.48;102015.34;5034046;28;8999;-65
2022/05/15 09:07:58;;;;;;;;;7.00;7.00;;;;;18.51;51.86;102016.50;5028682;28;8833;-67
2022/05/15 09:10:24;;;;;;;;;8.50;7.00;;;;;18.58;51.68;102014.59;5023329;28;8915;-66
2022/05/15 09:13:11;;;;;;;;;8.00;6.75;;;;;18.63;52.05;102014.75;5026830;28;8885;-65
2022/05/15 09:15:59;;;;;;;;;9.00;6.25;;;;;18.72;52.17;102018.13;5035171;28;8829;-65
2022/05/15 09:18:27;;;;;;;;;9.00;7.67;;;;;18.86;51.48;102016.94;5033017;28;8856;-65
2022/05/15 09:21:00;;;;;;;;;11.67;9.33;;;;;18.92;50.96;102021.53;5050605;28;8944;-65
2022/05/15 09:23:39;;;;;;;;;6.50;6.50;;;;;18.98;51.80;102022.53;5036033;28;9702;-66
2022/05/15 09:26:05;;;;;;;;;10.00;10.00;;;;;19.00;50.93;102026.72;5032182;28;8855;-67
2022/05/15 09:28:49;;;;;;;;;9.25;8.00;;;;;18.97;51.27;102021.72;5029171;28;8944;-64
2022/05/15 09:31:28;;;;;;;;;10.00;8.75;;;;;18.99;51.36;102026.94;5032245;28;8840;-64
2022/05/15 09:33:58;;;;;;;;;6.75;6.75;;;;;19.00;51.93;102020.44;5033745;28;8832;-66
2022/05/15 09:36:40;;;;;;;;;10.50;8.00;;;;;19.07;51.55;102023.09;5052414;28;8826;-66
2022/05/15 09:39:24;;;;;;;;;7.00;7.00;;;;;19.18;51.55;102017.75;5050959;28;8959;-67
2022/05/15 09:45:18;;;;;;;;;10.50;9.00;;;;;19.46;50.54;102013.72;5022894;28;8974;-65
2022/05/15 09:47:50;;;;;;;;;12.00;9.33;;;;;19.52;50.41;102007.34;5022438;28;8824;-66
2022/05/15 09:50:35;;;;;;;;;8.25;8.25;;;;;19.52;50.27;101997.25;5044700;28;8917;-67
2022/05/15 09:53:08;;;;;;;;;8.50;8.25;;;;;19.53;50.29;101998.13;5049887;28;8850;-65
2022/05/15 09:55:35;;;;;;;;;7.50;7.00;;;;;19.56;49.94;102002.28;5030335;28;8833;-66
2022/05/15 09:58:05;;;;;;;;;9.25;9.25;;;;;19.62;49.85;101996.78;5024490;28;8840;-64
2022/05/15 10:00:36;;;;;;;;;7.00;7.00;;;;;19.62;50.38;101983.13;5041263;28;8898;-65
2022/05/15 10:03:23;;;;;;;;;12.50;9.50;;;;;19.72;49.83;101982.59;5023436;28;8828;-66
2022/05/15 10:06:01;;;;;;;;;6.25;6.25;;;;;19.77;49.77;101988.25;5049602;28;8834;-67
2022/05/15 10:08:30;;;;;;;;;6.25;3.75;;;;;19.86;49.88;101986.88;5045839;28;8844;-66
2022/05/15 10:10:56;;;;;;;;;9.00;7.25;;;;;19.94;49.79;101985.72;5028855;28;8850;-66
2022/05/15 10:13:28;;;;;;;;;8.50;8.00;;;;;19.94;49.90;101983.81;5027336;28;8820;-64
2022/05/15 10:15:58;;;;;;;;;8.75;8.25;;;;;20.01;49.31;101986.44;5031890;28;8821;-65
2022/05/15 10:18:28;;;;;;;;;17.33;16.67;;;;;20.08;48.83;101983.66;5030892;28;8836;-66
2022/05/15 10:20:55;;;;;;;;;8.00;7.00;;;;;20.12;49.21;101977.50;5024755;28;8940;-66
2022/05/15 10:23:27;;;;;;;;;9.50;9.50;;;;;20.22;48.98;101980.53;5030903;28;8874;-67
2022/05/15 10:26:15;;;;;;;;;11.75;11.50;;;;;20.33;48.14;101978.06;5032004;28;8824;-66
2022/05/15 10:28:50;;;;;;;;;19.25;15.75;;;;;20.36;47.72;101974.88;5030766;28;9285;-66
2022/05/15 10:31:32;;;;;;;;;9.00;8.50;;;;;20.35;47.55;101970.47;5029417;28;8894;-66
2022/05/15 10:34:02;;;;;;;;;8.50;6.50;;;;;20.34;47.60;101963.34;5019527;28;8850;-66
2022/05/15 10:36:57;;;;;;;;;7.25;5.00;;;;;20.37;47.24;101960.13;5034777;28;9538;-66
2022/05/15 10:39:35;;;;;;;;;8.50;8.50;;;;;20.48;47.66;101967.53;5038938;28;9485;-66
2022/05/15 10:42:40;;;;;;;;;7.25;7.00;;;;;20.57;46.61;101957.97;5053683;28;9529;-67
2022/05/15 10:45:27;;;;;;;;;5.00;5.00;;;;;20.63;46.73;101965.25;5032127;28;8849;-66
2022/05/15 10:47:53;;;;;;;;;6.00;6.00;;;;;20.73;46.71;101954.53;5025349;28;8836;-66
2022/05/15 10:50:51;;;;;;;;;7.50;6.25;;;;;20.82;46.79;101956.94;5031055;28;8835;-66
2022/05/15 10:57:22;;;;;;;;;9.00;8.00;;;;;21.04;45.52;101960.78;4959024;28;8875;-66
2022/05/15 11:00:18;;;;;;;;;7.00;6.50;;;;;21.09;46.26;101939.00;5023184;28;8854;-67
2022/05/15 11:03:19;;;;;;;;;8.00;7.00;;;;;21.16;46.00;101945.19;5027050;28;8856;-66
2022/05/15 11:05:51;;;;;;;;;10.25;8.00;;;;;21.19;45.71;101936.50;5029339;28;8832;-66
2022/05/15 11:08:24;;;;;;;;;8.25;6.50;;;;;21.22;45.55;101940.66;5031798;28;8847;-66
2022/05/15 11:11:10;;;;;;;;;8.00;8.00;;;;;21.34;45.44;101938.78;5030332;28;8809;-68
2022/05/15 11:13:46;;;;;;;;;7.00;5.50;;;;;21.40;45.21;101934.28;5031571;28;8833;-67
2022/05/15 11:16:38;;;;;;;;;8.00;7.25;;;;;21.48;44.43;101933.91;5012625;28;8827;-67
2022/05/15 11:19:28;;;;;;;;;10.25;8.00;;;;;21.48;43.17;101937.47;5014807;28;8910;-66
2022/05/15 11:22:07;;;;;;;;;7.00;6.50;;;;;21.44;43.13;101928.06;5013861;28;8834;-67
2022/05/15 11:24:45;;;;;;;;;10.00;10.00;;;;;21.32;43.85;101923.66;5014439;28;8838;-66
2022/05/15 11:27:20;;;;;;;;;5.75;5.75;;;;;21.31;44.55;101927.44;5025156;28;8820;-66
2022/05/15 11:29:50;;;;;;;;;7.50;7.00;;;;;21.37;44.34;101923.78;5031596;28;9547;-67
2022/05/15 11:32:27;;;;;;;;;11.25;10.00;;;;;21.46;43.37;101930.56;5034276;28;8832;-68
2022/05/15 11:35:14;;;;;;;;;9.00;8.00;;;;;21.42;42.56;101915.69;5027914;28;9523;-67
2022/05/15 11:37:52;;;;;;;;;8.00;8.00;;;;;21.36;42.50;101916.66;5027850;28;8833;-67
2022/05/15 11:40:39;;;;;;;;;7.00;5.75;;;;;21.40;43.29;101906.88;5035284;28;8892;-67
2022/05/15 11:43:30;;;;;;;;;6.75;6.75;;;;;21.47;42.95;101910.28;5035327;28;8836;-67
2022/05/15 11:46:02;;;;;;;;;7.75;5.50;;;;;21.59;42.86;101905.66;5031485;28;8856;-67
2022/05/15 11:48:37;;;;;;;;;7.25;7.25;;;;;21.72;43.11;101899.91;5036891;28;8828;-66
2022/05/15 11:51:13;;;;;;;;;7.00;7.00;;;;;21.80;43.08;101906.06;5016636;28;8823;-66
2022/05/15 11:54:06;;;;;;;;;5.00;5.00;;;;;21.88;43.09;101897.47;5012175;28;8905;-66
2022/05/15 11:56:40;;;;;;;;;8.50;7.25;;;;;21.97;42.05;101888.59;5018994;28;8831;-67
2022/05/15 11:59:15;;;;;;;;;7.00;7.00;;;;;21.94;41.91;101886.34;5018982;28;8833;-66
2022/05/15 12:01:57;;;;;;;;;5.50;4.00;;;;;22.03;41.56;101885.94;5033371;28;9531;-67
2022/05/15 12:04:33;;;;;;;;;9.00;7.50;;;;;22.12;40.97;101889.94;5037519;28;8825;-66
2022/05/15 12:06:59;;;;;;;;;9.00;9.00;;;;;22.11;40.50;101883.63;5034230;28;8821;-67